createdAt,value
2022-09-06T00:00:58.959Z,3.28
2022-09-06T00:03:28.050Z,3.53
2022-09-06T00:05:55.068Z,4.10
2022-09-06T00:08:21.677Z,3.20
2022-09-06T00:10:48.188Z,3.60
2022-09-06T00:13:14.729Z,3.38
2022-09-06T00:15:41.355Z,3.35
2022-09-06T00:18:08.586Z,4.65
2022-09-06T00:20:37.413Z,3.53
2022-09-06T00:23:05.688Z,3.63
2022-09-06T00:25:33.213Z,3.65
2022-09-06T00:28:02.644Z,3.70
2022-09-06T00:30:30.344Z,3.03
2022-09-06T00:32:57.477Z,3.65
2022-09-06T00:35:25.550Z,3.92
2022-09-06T00:37:55.971Z,4.00
2022-09-06T00:40:22.436Z,3.20
2022-09-06T00:42:49.026Z,3.30
2022-09-06T00:45:15.567Z,3.28
2022-09-06T00:47:43.394Z,3.35
2022-09-06T00:50:13.646Z,3.65
2022-09-06T00:52:43.005Z,3.72
2022-09-06T00:55:09.793Z,3.60
2022-09-06T00:57:36.609Z,3.70
2022-09-06T01:00:05.988Z,3.30
2022-09-06T01:02:32.621Z,3.30
2022-09-06T01:04:59.862Z,3.42
2022-09-06T01:07:50.057Z,3.67
2022-09-06T01:10:39.814Z,3.22
2022-09-06T01:13:21.407Z,3.63
2022-09-06T01:19:25.780Z,3.60
2022-09-06T01:22:22.681Z,3.90
2022-09-06T01:25:15.320Z,3.63
2022-09-06T01:27:49.062Z,3.20
2022-09-06T01:30:18.827Z,3.42
2022-09-06T01:32:48.008Z,3.88
2022-09-06T01:35:27.316Z,3.67
2022-09-06T01:37:55.474Z,3.88
2022-09-06T01:40:21.956Z,4.18
2022-09-06T01:42:50.060Z,3.83
2022-09-06T01:46:11.522Z,4.03
2022-09-06T01:49:18.216Z,3.40
2022-09-06T01:51:57.810Z,3.10
2022-09-06T01:55:11.817Z,3.30
2022-09-06T01:57:48.997Z,3.55
2022-09-06T02:00:18.653Z,2.90
2022-09-06T02:03:11.878Z,3.33
2022-09-06T02:05:48.617Z,3.25
2022-09-06T02:08:26.865Z,2.90
2022-09-06T02:11:02.392Z,3.10
2022-09-06T02:13:37.302Z,2.60
2022-09-06T02:16:06.725Z,2.88
2022-09-06T02:18:41.880Z,2.97
2022-09-06T02:21:12.658Z,2.75
2022-09-06T02:23:41.473Z,3.05
2022-09-06T02:26:36.732Z,3.33
2022-09-06T02:29:03.538Z,3.45
2022-09-06T02:31:35.697Z,2.97
2022-09-06T02:34:03.409Z,4.13
2022-09-06T02:36:31.938Z,4.57
2022-09-06T02:39:02.056Z,3.83
2022-09-06T02:41:30.949Z,3.67
2022-09-06T02:43:57.480Z,3.45
2022-09-06T02:46:24.467Z,3.55
2022-09-06T02:48:51.747Z,3.35
2022-09-06T02:51:18.608Z,3.58
2022-09-06T02:53:45.101Z,3.20
2022-09-06T02:56:11.701Z,3.22
2022-09-06T02:58:38.374Z,3.15
2022-09-06T03:01:05.066Z,3.13
2022-09-06T03:03:31.593Z,3.28
2022-09-06T03:05:58.356Z,3.85
2022-09-06T03:08:26.281Z,3.50
2022-09-06T03:10:56.039Z,3.17
2022-09-06T03:13:24.242Z,3.47
2022-09-06T03:15:52.484Z,3.75
2022-09-06T03:18:19.032Z,3.80
2022-09-06T03:20:45.918Z,3.28
2022-09-06T03:23:12.410Z,3.78
2022-09-06T03:25:38.877Z,5.22
2022-09-06T03:28:05.356Z,4.03
2022-09-06T03:30:31.851Z,3.83
2022-09-06T03:33:02.641Z,4.20
2022-09-06T03:35:29.569Z,4.95
2022-09-06T03:37:56.093Z,4.72
2022-09-06T03:40:22.667Z,4.28
2022-09-06T03:42:49.176Z,5.18
2022-09-06T03:45:15.791Z,5.25
2022-09-06T03:47:42.269Z,5.15
2022-09-06T03:50:09.143Z,5.07
2022-09-06T03:52:35.623Z,5.47
2022-09-06T03:55:03.345Z,5.43
2022-09-06T03:57:29.967Z,5.13
2022-09-06T03:59:56.412Z,4.90
2022-09-06T04:02:23.121Z,4.53
2022-09-06T04:04:49.681Z,4.63
2022-09-06T04:07:16.135Z,4.57
2022-09-06T04:09:42.670Z,5.20
2022-09-06T04:12:09.121Z,5.32
2022-09-06T04:14:35.603Z,5.20
2022-09-06T04:17:02.104Z,5.80
2022-09-06T04:19:28.603Z,5.53
2022-09-06T04:21:55.363Z,5.70
2022-09-06T04:24:21.901Z,5.85
2022-09-06T04:26:48.404Z,6.22
2022-09-06T04:29:16.204Z,5.70
2022-09-06T04:31:42.710Z,5.53
2022-09-06T04:34:09.188Z,5.55
2022-09-06T04:36:36.130Z,5.70
2022-09-06T04:39:02.804Z,6.88
2022-09-06T04:41:29.345Z,6.40
2022-09-06T04:43:55.832Z,5.45
2022-09-06T04:46:25.344Z,6.60
2022-09-06T04:48:54.179Z,5.80
2022-09-06T04:51:21.648Z,5.82
2022-09-06T04:53:48.678Z,5.50
2022-09-06T04:56:18.176Z,6.00
2022-09-06T04:58:46.228Z,5.13
2022-09-06T05:01:13.500Z,5.38
2022-09-06T05:03:40.108Z,5.70
2022-09-06T05:06:13.862Z,5.97
2022-09-06T05:08:41.748Z,5.90
2022-09-06T05:11:08.902Z,6.07
2022-09-06T05:13:35.550Z,5.22
2022-09-06T05:16:06.340Z,6.05
2022-09-06T05:18:34.039Z,6.40
2022-09-06T05:21:01.057Z,6.00
2022-09-06T05:23:28.177Z,5.35
2022-09-06T05:25:54.782Z,5.95
2022-09-06T05:28:21.362Z,6.70
2022-09-06T05:30:47.976Z,6.22
2022-09-06T05:33:20.449Z,5.93
2022-09-06T05:35:48.711Z,5.40
2022-09-06T05:38:15.269Z,5.90
2022-09-06T05:40:41.789Z,6.00
2022-09-06T05:43:08.298Z,5.57
2022-09-06T05:45:34.915Z,6.18
2022-09-06T05:48:01.565Z,5.75
2022-09-06T05:50:28.077Z,6.18
2022-09-06T05:52:54.605Z,5.18
2022-09-06T05:55:21.085Z,5.63
2022-09-06T05:57:47.605Z,5.28
2022-09-06T06:00:14.513Z,5.43
2022-09-06T06:02:41.115Z,5.68
2022-09-06T06:05:08.193Z,5.55
2022-09-06T06:07:34.808Z,5.95
2022-09-06T06:10:01.267Z,6.65
2022-09-06T06:12:27.749Z,6.22
2022-09-06T06:14:54.226Z,6.90
2022-09-06T06:17:20.849Z,5.70
2022-09-06T06:19:47.509Z,6.28
2022-09-06T06:22:14.007Z,6.70
2022-09-06T06:24:40.556Z,6.45
2022-09-06T06:27:07.072Z,5.38
2022-09-06T06:29:33.692Z,4.85
2022-09-06T06:32:00.354Z,5.28
2022-09-06T06:34:26.900Z,5.03
2022-09-06T06:36:53.357Z,5.10
2022-09-06T06:39:19.892Z,4.43
2022-09-06T06:41:46.397Z,5.35
2022-09-06T06:44:32.179Z,4.97
2022-09-06T06:47:01.841Z,4.93
2022-09-06T06:49:29.175Z,4.50
2022-09-06T06:51:55.690Z,4.35
2022-09-06T06:54:22.213Z,4.55
2022-09-06T06:56:48.685Z,5.22
2022-09-06T06:59:15.187Z,4.13
2022-09-06T07:01:41.817Z,4.13
2022-09-06T07:04:10.384Z,3.95
2022-09-06T07:12:23.688Z,4.13
2022-09-06T07:14:50.276Z,4.07
2022-09-06T07:17:16.724Z,4.10
2022-09-06T07:22:29.645Z,4.60
2022-09-06T07:24:56.224Z,4.00
2022-09-06T07:30:10.316Z,5.50
2022-09-06T07:32:36.880Z,4.28
2022-09-06T07:35:03.618Z,4.20
2022-09-06T07:37:30.109Z,4.35
2022-09-06T07:39:56.614Z,4.50
2022-09-06T07:42:23.205Z,4.07
2022-09-06T07:44:49.734Z,3.90
2022-09-06T07:53:07.176Z,3.78
2022-09-06T07:55:34.928Z,3.60
2022-09-06T07:58:01.494Z,3.97
2022-09-06T08:00:27.968Z,3.70
2022-09-06T08:02:54.432Z,3.78
2022-09-06T08:10:53.903Z,3.50
2022-09-06T08:13:20.365Z,3.10
2022-09-06T08:15:46.865Z,2.88
2022-09-06T08:18:13.355Z,3.30
2022-09-06T08:20:39.845Z,2.88
2022-09-06T08:23:10.344Z,3.28
2022-09-06T08:25:37.065Z,3.00
2022-09-06T08:28:03.604Z,2.67
2022-09-06T08:30:30.580Z,2.75
2022-09-06T08:32:57.109Z,2.90
2022-09-06T08:35:23.677Z,2.70
2022-09-06T08:37:50.174Z,3.30
2022-09-06T08:40:23.885Z,3.13
2022-09-06T08:42:51.433Z,3.25
2022-09-06T08:45:19.491Z,2.65
2022-09-06T08:47:45.989Z,2.83
2022-09-06T08:50:12.552Z,3.33
2022-09-06T08:53:15.624Z,2.95
2022-09-06T08:55:39.012Z,2.60
2022-09-06T08:58:17.771Z,2.60
2022-09-06T09:00:58.668Z,2.85
2022-09-06T09:03:33.177Z,2.58
2022-09-06T09:06:01.534Z,2.80
2022-09-06T09:08:52.920Z,2.75
2022-09-06T09:14:01.707Z,2.53
2022-09-06T09:16:28.468Z,2.60
2022-09-06T09:19:01.811Z,2.80
2022-09-06T09:21:31.586Z,2.65
2022-09-06T09:24:03.058Z,2.80
2022-09-06T09:26:36.839Z,3.60
2022-09-06T09:29:05.822Z,3.20
2022-09-06T09:31:38.916Z,2.97
2022-09-06T09:34:10.165Z,2.80
2022-09-06T09:36:36.970Z,3.30
2022-09-06T09:39:10.368Z,2.50
2022-09-06T09:41:40.273Z,3.17
2022-09-06T09:44:18.878Z,2.78
2022-09-06T09:46:45.574Z,3.05
2022-09-06T09:49:24.154Z,3.22
2022-09-06T09:52:11.425Z,3.20
2022-09-06T09:54:41.001Z,2.63
2022-09-06T09:57:14.713Z,2.72
2022-09-06T09:59:51.675Z,2.53
2022-09-06T10:02:30.563Z,3.33
2022-09-06T10:05:09.801Z,2.53
2022-09-06T10:07:43.593Z,2.83
2022-09-06T10:10:20.329Z,2.63
2022-09-06T10:12:46.884Z,2.45
2022-09-06T10:15:39.629Z,3.22
2022-09-06T10:18:06.541Z,2.63
2022-09-06T10:20:44.375Z,2.50
2022-09-06T10:26:32.274Z,2.53
2022-09-06T10:29:04.714Z,2.30
2022-09-06T10:32:06.637Z,2.40
2022-09-06T10:34:57.429Z,1.98
2022-09-06T10:37:48.413Z,2.55
2022-09-06T10:40:41.923Z,2.58
2022-09-06T10:43:17.645Z,2.90
2022-09-06T10:46:09.295Z,2.17
2022-09-06T10:48:40.693Z,2.63
2022-09-06T10:51:28.684Z,2.45
2022-09-06T10:54:01.741Z,2.47
2022-09-06T10:56:57.277Z,2.65
2022-09-06T10:59:39.188Z,2.20
2022-09-06T11:02:05.802Z,2.65
2022-09-06T11:07:30.208Z,2.58
2022-09-06T11:10:06.060Z,2.88
2022-09-06T11:12:48.196Z,2.25
2022-09-06T11:15:17.970Z,2.67
2022-09-06T11:17:58.937Z,2.45
2022-09-06T11:20:32.171Z,2.67
2022-09-06T11:23:30.033Z,2.45
2022-09-06T11:26:03.731Z,1.80
2022-09-06T11:28:45.741Z,2.13
2022-09-06T11:34:19.618Z,2.15
2022-09-06T11:36:49.588Z,2.08
2022-09-06T11:42:41.776Z,2.40
2022-09-06T11:45:08.220Z,2.17
2022-09-06T11:47:43.277Z,2.90
2022-09-06T11:50:21.939Z,3.40
2022-09-06T11:53:06.980Z,2.88
2022-09-06T11:55:43.562Z,2.90
2022-09-06T11:58:23.013Z,3.22
2022-09-06T12:01:25.301Z,2.47
2022-09-06T12:04:08.782Z,2.90
2022-09-06T12:07:04.123Z,2.60
2022-09-06T12:09:36.333Z,2.60
2022-09-06T12:12:03.596Z,2.53
2022-09-06T12:14:31.554Z,2.72
2022-09-06T12:17:00.746Z,2.15
2022-09-06T12:19:48.590Z,2.17
2022-09-06T12:22:27.337Z,2.70
2022-09-06T12:25:03.923Z,3.05
2022-09-06T12:27:34.994Z,2.10
2022-09-06T12:32:45.166Z,3.25
2022-09-06T12:38:06.403Z,2.45
2022-09-06T12:40:40.911Z,3.17
2022-09-06T12:43:11.109Z,2.50
2022-09-06T12:45:43.768Z,2.20
2022-09-06T12:48:16.044Z,2.67
2022-09-06T12:50:42.821Z,2.63
2022-09-06T12:53:25.419Z,2.90
2022-09-06T12:56:14.862Z,3.35
2022-09-06T12:58:41.977Z,2.80
2022-09-06T13:01:18.250Z,3.22
2022-09-06T13:04:02.687Z,3.05
2022-09-06T13:06:33.628Z,2.85
2022-09-06T13:09:01.356Z,2.70
2022-09-06T13:11:43.816Z,2.63
2022-09-06T13:14:14.540Z,2.70
2022-09-06T13:16:47.512Z,2.85
2022-09-06T13:19:30.501Z,3.08
2022-09-06T13:21:58.413Z,2.67
2022-09-06T13:24:46.514Z,2.65
2022-09-06T13:27:23.809Z,2.80
2022-09-06T13:30:10.782Z,2.50
2022-09-06T13:32:46.697Z,2.50
2022-09-06T13:35:26.750Z,2.55
2022-09-06T13:37:53.299Z,1.88
2022-09-06T13:41:09.681Z,1.90
2022-09-06T13:43:33.360Z,1.70
2022-09-06T13:46:08.894Z,1.98
2022-09-06T13:48:35.892Z,2.70
2022-09-06T13:51:07.197Z,2.50
2022-09-06T13:56:00.953Z,2.00
2022-09-06T13:58:27.830Z,2.45
2022-09-06T14:00:54.555Z,1.90
2022-09-06T14:03:25.625Z,1.60
2022-09-06T14:05:52.092Z,1.92
2022-09-06T14:08:18.703Z,1.77
2022-09-06T14:10:47.801Z,1.90
2022-09-06T14:13:15.896Z,1.60
2022-09-06T14:15:42.720Z,2.03
2022-09-06T14:18:13.813Z,2.10
2022-09-06T14:20:41.416Z,2.03
2022-09-06T14:23:08.985Z,1.48
2022-09-06T14:25:36.950Z,2.03
2022-09-06T14:28:04.424Z,2.50
2022-09-06T14:30:31.615Z,2.38
2022-09-06T14:32:58.278Z,2.65
2022-09-06T14:35:24.751Z,2.97
2022-09-06T14:37:51.499Z,2.28
2022-09-06T14:40:18.049Z,3.00
2022-09-06T14:42:47.596Z,2.72
2022-09-06T14:45:17.383Z,4.85
2022-09-06T14:47:43.957Z,2.60
2022-09-06T14:50:10.558Z,3.17
2022-09-06T14:52:37.499Z,2.97
2022-09-06T14:55:04.628Z,2.55
2022-09-06T14:57:31.191Z,2.97
2022-09-06T14:59:58.150Z,3.33
2022-09-06T15:02:26.214Z,2.45
2022-09-06T15:04:53.041Z,2.38
2022-09-06T15:07:19.723Z,2.10
2022-09-06T15:09:46.233Z,2.78
2022-09-06T15:12:12.907Z,2.35
2022-09-06T15:14:40.998Z,2.50
2022-09-06T15:17:08.910Z,2.20
2022-09-06T15:19:37.409Z,2.00
2022-09-06T15:22:05.268Z,2.13
2022-09-06T15:24:32.776Z,2.03
2022-09-06T15:26:59.856Z,1.65
2022-09-06T15:29:29.752Z,1.92
2022-09-06T15:31:57.113Z,1.70
2022-09-06T15:34:25.520Z,1.88
2022-09-06T15:36:53.209Z,2.17
2022-09-06T15:39:20.125Z,2.33
2022-09-06T15:41:46.666Z,1.98
2022-09-06T15:44:15.977Z,2.22
2022-09-06T15:46:49.987Z,2.08
2022-09-06T15:49:27.485Z,2.25
2022-09-06T15:51:55.383Z,2.33
2022-09-06T15:54:42.119Z,3.10
2022-09-06T15:57:09.191Z,2.33
2022-09-06T15:59:35.767Z,2.50
2022-09-06T16:02:03.240Z,2.60
2022-09-06T16:04:29.785Z,3.08
2022-09-06T16:06:56.725Z,2.53
2022-09-06T16:09:23.376Z,2.92
2022-09-06T16:11:50.065Z,2.97
2022-09-06T16:14:16.720Z,3.40
2022-09-06T16:16:43.743Z,2.55
2022-09-06T16:19:12.199Z,3.00
2022-09-06T16:21:40.729Z,3.97
2022-09-06T16:24:09.938Z,2.65
2022-09-06T16:26:39.042Z,3.10
2022-09-06T16:29:08.031Z,3.72
2022-09-06T16:31:39.733Z,2.97
2022-09-06T16:34:06.616Z,3.30
2022-09-06T16:36:33.176Z,3.00
2022-09-06T16:39:00.051Z,2.50
2022-09-06T16:41:48.090Z,2.30
2022-09-06T16:44:17.700Z,3.08
2022-09-06T16:46:46.673Z,2.42
2022-09-06T16:49:13.674Z,1.95
2022-09-06T16:51:40.197Z,2.45
2022-09-06T16:54:06.800Z,2.08
2022-09-06T16:56:35.729Z,2.47
2022-09-06T16:59:05.157Z,2.20
2022-09-06T17:01:32.409Z,2.40
2022-09-06T17:04:03.808Z,2.00
2022-09-06T17:09:00.633Z,2.38
2022-09-06T17:11:28.680Z,2.33
2022-09-06T17:13:56.872Z,2.38
2022-09-06T17:16:42.734Z,2.70
2022-09-06T17:19:09.935Z,2.30
2022-09-06T17:21:37.353Z,2.00
2022-09-06T17:24:04.579Z,1.80
2022-09-06T17:26:33.152Z,2.58
2022-09-06T17:28:59.982Z,2.30
2022-09-06T17:31:27.077Z,2.15
2022-09-06T17:33:53.977Z,2.97
2022-09-06T17:36:23.869Z,3.13
2022-09-06T17:38:53.485Z,2.65
2022-09-06T17:41:20.247Z,2.85
2022-09-06T17:43:47.477Z,2.58
2022-09-06T17:46:14.230Z,2.80
2022-09-06T17:48:41.053Z,3.83
2022-09-06T17:51:08.808Z,3.10
2022-09-06T17:53:36.530Z,2.60
2022-09-06T17:56:08.916Z,3.03
2022-09-06T17:58:36.601Z,2.55
2022-09-06T18:01:04.735Z,2.75
2022-09-06T18:03:32.124Z,2.47
2022-09-06T18:06:25.415Z,2.30
2022-09-06T18:08:54.992Z,2.67
2022-09-06T18:11:27.364Z,3.17
2022-09-06T18:13:58.694Z,2.65
2022-09-06T18:16:26.516Z,2.55
2022-09-06T18:18:55.925Z,3.08
2022-09-06T18:21:23.781Z,3.00
2022-09-06T18:23:51.056Z,4.03
2022-09-06T18:26:18.169Z,2.50
2022-09-06T18:28:44.847Z,2.40
2022-09-06T18:31:18.115Z,2.45
2022-09-06T18:33:44.997Z,2.40
2022-09-06T18:36:12.872Z,2.53
2022-09-06T18:38:42.613Z,2.80
2022-09-06T18:41:30.575Z,2.65
2022-09-06T18:44:02.407Z,3.33
2022-09-06T18:46:30.933Z,2.70
2022-09-06T18:48:57.473Z,2.60
2022-09-06T18:51:24.477Z,2.80
2022-09-06T18:53:52.706Z,3.00
2022-09-06T18:56:20.022Z,3.65
2022-09-06T18:58:46.765Z,2.85
2022-09-06T19:01:15.769Z,3.15
2022-09-06T19:03:43.286Z,2.80
2022-09-06T19:06:16.274Z,3.17
2022-09-06T19:08:43.528Z,3.00
2022-09-06T19:11:12.257Z,3.20
2022-09-06T19:13:41.716Z,3.20
2022-09-06T19:16:10.357Z,3.10
2022-09-06T19:18:37.229Z,2.78
2022-09-06T19:21:09.358Z,3.22
2022-09-06T19:23:38.441Z,4.25
2022-09-06T19:26:09.025Z,3.40
2022-09-06T19:28:37.363Z,3.37
2022-09-06T19:31:15.800Z,4.35
2022-09-06T19:33:43.796Z,3.90
2022-09-06T19:36:12.185Z,4.38
2022-09-06T19:39:01.951Z,4.72
2022-09-06T19:41:28.262Z,4.93
2022-09-06T19:43:56.142Z,5.00
2022-09-06T19:46:23.297Z,5.20
2022-09-06T19:48:51.742Z,5.18
2022-09-06T19:51:19.445Z,4.82
2022-09-06T19:53:52.947Z,5.00
2022-09-06T19:56:26.004Z,4.63
2022-09-06T19:58:55.265Z,5.30
2022-09-06T20:01:23.177Z,5.38
2022-09-06T20:03:50.042Z,5.55
2022-09-06T20:06:16.690Z,5.53
2022-09-06T20:08:43.277Z,5.47
2022-09-06T20:11:12.533Z,5.65
2022-09-06T20:13:39.574Z,4.70
2022-09-06T20:16:08.076Z,4.60
2022-09-06T20:18:35.494Z,4.90
2022-09-06T20:21:02.529Z,4.78
2022-09-06T20:23:30.743Z,4.68
2022-09-06T20:25:59.535Z,4.35
2022-09-06T20:28:27.034Z,4.97
2022-09-06T20:30:53.882Z,4.65
2022-09-06T20:33:20.389Z,4.70
2022-09-06T20:35:57.801Z,4.90
2022-09-06T20:38:25.300Z,5.15
2022-09-06T20:40:59.753Z,4.75
2022-09-06T20:43:26.232Z,5.07
2022-09-06T20:45:52.948Z,4.63
2022-09-06T20:48:19.556Z,4.80
2022-09-06T20:50:46.604Z,5.03
2022-09-06T20:53:13.080Z,5.18
2022-09-06T20:55:39.617Z,5.22
2022-09-06T20:58:06.109Z,4.40
2022-09-06T21:00:33.164Z,4.10
2022-09-06T21:02:59.683Z,3.28
2022-09-06T21:05:26.259Z,4.22
2022-09-06T21:07:52.729Z,2.72
2022-09-06T21:10:19.261Z,3.10
2022-09-06T21:12:46.076Z,2.90
2022-09-06T21:15:12.585Z,2.90
2022-09-06T21:17:39.122Z,2.72
2022-09-06T21:20:06.585Z,2.80
2022-09-06T21:22:33.113Z,2.67
2022-09-06T21:24:59.580Z,2.35
2022-09-06T21:27:26.074Z,2.72
2022-09-06T21:29:52.559Z,2.95
2022-09-06T21:32:19.156Z,3.00
2022-09-06T21:34:45.622Z,2.63
2022-09-06T21:37:12.122Z,2.80
2022-09-06T21:39:39.159Z,2.78
2022-09-06T21:42:05.973Z,3.50
2022-09-06T21:44:32.448Z,2.40
2022-09-06T21:46:59.060Z,3.00
2022-09-06T21:49:25.687Z,2.70
2022-09-06T21:51:52.190Z,2.60
2022-09-06T21:54:18.716Z,2.55
2022-09-06T21:56:46.442Z,3.00
2022-09-06T21:59:12.949Z,2.35
2022-09-06T22:01:40.536Z,2.75
2022-09-06T22:04:07.731Z,2.20
2022-09-06T22:06:35.565Z,2.25
2022-09-06T22:09:11.067Z,2.50
2022-09-06T22:11:39.521Z,2.17
2022-09-06T22:14:07.984Z,2.00
2022-09-06T22:16:36.975Z,2.60
2022-09-06T22:19:05.627Z,2.70
2022-09-06T22:21:33.362Z,2.53
2022-09-06T22:24:02.601Z,2.17
2022-09-06T22:26:31.652Z,2.35
2022-09-06T22:29:03.978Z,2.30
2022-09-06T22:31:32.756Z,2.20
2022-09-06T22:34:00.088Z,2.20
2022-09-06T22:36:27.124Z,2.08
2022-09-06T22:38:57.187Z,2.08
2022-09-06T22:41:25.745Z,2.33
2022-09-06T22:43:52.318Z,2.30
2022-09-06T22:46:19.045Z,2.42
2022-09-06T22:48:45.599Z,2.65
2022-09-06T22:51:12.161Z,1.92
2022-09-06T22:53:39.203Z,1.77
2022-09-06T22:56:05.818Z,1.85
2022-09-06T22:58:33.257Z,1.98
2022-09-06T23:01:07.029Z,1.55
2022-09-06T23:03:33.752Z,1.80
2022-09-06T23:06:00.730Z,1.98
2022-09-06T23:08:27.227Z,1.90
2022-09-06T23:10:53.716Z,1.73
2022-09-06T23:13:20.236Z,1.40
2022-09-06T23:15:47.552Z,1.20
2022-09-06T23:18:14.580Z,1.20
2022-09-06T23:20:41.670Z,1.60
2022-09-06T23:23:08.582Z,1.23
2022-09-06T23:25:39.018Z,1.88
2022-09-06T23:28:06.316Z,1.60
2022-09-06T23:30:36.540Z,1.75
2022-09-06T23:33:03.048Z,1.70
2022-09-06T23:35:29.539Z,1.20
2022-09-06T23:37:56.171Z,1.40
2022-09-06T23:40:22.698Z,1.63
2022-09-06T23:42:49.222Z,1.50
2022-09-06T23:45:15.900Z,1.42
2022-09-06T23:47:42.466Z,1.88
2022-09-06T23:50:09.368Z,1.50
2022-09-06T23:52:35.933Z,1.70
2022-09-06T23:55:02.980Z,1.40
2022-09-06T23:57:29.740Z,1.20
2022-09-06T23:59:56.294Z,1.48
